Time;durP1;ratioP1;P1;durP2;ratioP2;P2;SDS_P1;SDS_P2;PMS_P1;PMS_P2;Temp;Humidity;BMP_temperature;BMP_pressure;BME280_temperature;BME280_humidity;BME280_pressure;Samples;Min_cycle;Max_cycle;Signal;HPM_P1;HPM_P2
2022/01/11 00:01:50;;;;;;;;;32.00;27.00;;;;;6.06;70.34;102641.50;5016021;28;45243;-65
2022/01/11 00:04:17;;;;;;;;;26.00;21.25;;;;;6.06;71.13;102638.91;5019254;28;45566;-60
2022/01/11 00:06:47;;;;;;;;;27.50;20.75;;;;;6.06;70.50;102641.50;5017133;28;45527;-61
2022/01/11 00:09:32;;;;;;;;;35.25;26.00;;;;;6.06;70.30;102641.50;5017193;28;45578;-66
2022/01/11 00:11:58;;;;;;;;;31.25;27.50;;;;;6.05;71.10;102646.75;5018793;28;45372;-62
2022/01/11 00:14:24;;;;;;;;;35.00;23.50;;;;;6.04;70.23;102648.53;5013561;28;45586;-63
2022/01/11 00:16:50;;;;;;;;;23.25;21.25;;;;;6.03;70.65;102648.53;5017599;28;45293;-63
2022/01/11 00:19:17;;;;;;;;;31.00;19.25;;;;;6.04;70.83;102652.88;5019095;28;45364;-61
2022/01/11 00:21:48;;;;;;;;;26.25;14.75;;;;;6.02;70.93;102654.66;5029153;28;45578;-65
2022/01/11 00:24:30;;;;;;;;;25.50;18.50;;;;;6.07;70.35;102668.53;5035204;28;45375;-63
2022/01/11 00:26:59;;;;;;;;;24.00;18.50;;;;;6.09;70.58;102653.72;5038334;28;45398;-66
2022/01/11 00:29:25;;;;;;;;;20.25;16.75;;;;;6.11;70.47;102657.19;5036494;28;45318;-71
2022/01/11 00:31:53;;;;;;;;;22.50;17.75;;;;;6.11;70.43;102657.19;5021664;28;45234;-63
2022/01/11 00:34:20;;;;;;;;;22.25;18.75;;;;;6.12;70.51;102656.28;5038430;28;45460;-62
2022/01/11 00:36:46;;;;;;;;;23.75;18.50;;;;;6.11;70.65;102652.81;5038194;28;45477;-62
2022/01/11 00:39:12;;;;;;;;;18.50;13.75;;;;;6.13;70.35;102656.28;5039497;28;45478;-62
2022/01/11 00:41:39;;;;;;;;;25.25;17.75;;;;;6.14;70.33;102649.28;5039920;28;45383;-62
2022/01/11 00:44:06;;;;;;;;;23.25;18.25;;;;;6.14;70.49;102649.28;5039437;28;45484;-62
2022/01/11 00:46:32;;;;;;;;;25.00;19.75;;;;;6.15;70.25;102656.25;5039928;28;45304;-62
2022/01/11 00:48:58;;;;;;;;;29.00;19.00;;;;;6.13;70.95;102656.28;5040043;28;45287;-62
2022/01/11 00:51:24;;;;;;;;;28.25;24.75;;;;;6.11;70.25;102654.56;5042803;28;45281;-62
2022/01/11 00:53:49;;;;;;;;;32.00;27.25;;;;;6.10;70.61;102656.31;5043319;28;45393;-62
2022/01/11 00:56:15;;;;;;;;;25.00;22.25;;;;;6.09;70.71;102651.09;5043059;28;45340;-62
2022/01/11 00:58:41;;;;;;;;;25.50;22.00;;;;;6.08;70.96;102651.97;5043061;28;46087;-62
2022/01/11 01:01:07;;;;;;;;;20.25;18.50;;;;;6.03;71.02;102656.38;5042262;28;45490;-62
2022/01/11 01:03:34;;;;;;;;;32.25;22.25;;;;;6.04;70.35;102653.75;5043319;28;45501;-62
2022/01/11 01:06:00;;;;;;;;;24.00;19.50;;;;;6.03;71.01;102659.00;5043169;28;45486;-61
2022/01/11 01:08:26;;;;;;;;;21.75;19.00;;;;;6.03;70.80;102669.47;5042769;28;45314;-61
2022/01/11 01:10:52;;;;;;;;;29.25;21.00;;;;;6.03;71.21;102672.94;5042938;28;45288;-61
2022/01/11 01:13:24;;;;;;;;;22.00;19.00;;;;;6.03;71.03;102674.69;5043148;28;45244;-61
2022/01/11 01:15:52;;;;;;;;;28.75;21.75;;;;;6.02;70.32;102675.59;5040343;28;45237;-61
2022/01/11 01:18:22;;;;;;;;;28.75;25.75;;;;;6.02;70.85;102681.69;5042563;28;46289;-61
2022/01/11 01:20:49;;;;;;;;;30.75;24.00;;;;;6.03;71.19;102683.41;5042317;28;45391;-62
2022/01/11 01:23:15;;;;;;;;;30.00;24.75;;;;;6.03;71.02;102678.19;5042814;28;45239;-62
2022/01/11 01:25:42;;;;;;;;;32.25;27.75;;;;;6.03;70.82;102677.31;5042738;28;45395;-61
2022/01/11 01:28:11;;;;;;;;;33.00;24.25;;;;;6.03;71.19;102670.34;5042374;28;45568;-62
2022/01/11 01:30:36;;;;;;;;;38.00;21.50;;;;;6.00;70.85;102672.97;5042129;28;45785;-61
2022/01/11 01:33:04;;;;;;;;;32.00;28.75;;;;;5.97;70.63;102673.00;5042532;28;45443;-61
2022/01/11 01:35:36;;;;;;;;;38.50;27.25;;;;;5.96;71.06;102670.41;5036137;28;45531;-61
2022/01/11 01:38:02;;;;;;;;;33.75;25.75;;;;;5.94;71.35;102678.28;5042181;28;45507;-61
2022/01/11 01:40:35;;;;;;;;;36.75;27.50;;;;;5.91;70.96;102680.03;5042498;28;45316;-61
2022/01/11 01:43:01;;;;;;;;;29.75;26.75;;;;;5.93;71.32;102686.13;5042485;28;45626;-62
2022/01/11 01:45:27;;;;;;;;;35.75;27.75;;;;;5.92;70.65;102694.84;5042375;28;45467;-62
2022/01/11 01:47:57;;;;;;;;;34.50;29.50;;;;;5.92;71.39;102700.06;5042387;28;45411;-62
2022/01/11 01:50:23;;;;;;;;;31.75;25.25;;;;;5.89;71.48;102693.09;5039446;28;45470;-62
2022/01/11 01:52:49;;;;;;;;;43.25;32.75;;;;;5.88;71.24;102700.06;5042359;28;45233;-62
2022/01/11 01:55:15;;;;;;;;;29.00;23.25;;;;;5.90;71.26;102702.66;5042537;28;45482;-60
2022/01/11 01:57:41;;;;;;;;;29.50;23.25;;;;;5.91;70.84;102698.34;5042159;28;45446;-64
2022/01/11 02:00:11;;;;;;;;;35.00;29.50;;;;;5.91;71.11;102700.94;5041539;28;45336;-63
2022/01/11 02:02:40;;;;;;;;;33.25;25.75;;;;;5.89;71.64;102706.16;5042223;28;45166;-63
2022/01/11 02:05:06;;;;;;;;;30.75;22.75;;;;;5.87;70.54;102707.94;5042021;28;45383;-63
2022/01/11 02:07:33;;;;;;;;;27.75;22.75;;;;;5.87;71.37;102711.41;5041917;28;46609;-63
2022/01/11 02:10:01;;;;;;;;;30.00;24.00;;;;;5.93;71.40;102710.53;5041915;28;45459;-63
2022/01/11 02:12:27;;;;;;;;;32.00;26.25;;;;;5.94;70.84;102711.41;5042001;28;45193;-63
2022/01/11 02:14:53;;;;;;;;;31.75;26.25;;;;;5.93;71.04;102714.91;5041842;28;45281;-63
2022/01/11 02:17:19;;;;;;;;;32.50;27.00;;;;;5.90;70.29;102713.13;5041761;28;45245;-63
2022/01/11 02:19:44;;;;;;;;;28.25;21.00;;;;;5.86;70.34;102712.31;5041750;28;45170;-63
2022/01/11 02:22:10;;;;;;;;;44.25;29.50;;;;;5.83;70.72;102714.91;5041727;28;45332;-64
2022/01/11 02:24:35;;;;;;;;;34.00;23.25;;;;;5.80;71.17;102714.09;5041947;28;45375;-64
2022/01/11 02:27:01;;;;;;;;;33.25;21.50;;;;;5.79;70.60;102709.75;5041740;28;46203;-64
2022/01/11 02:29:29;;;;;;;;;28.00;23.00;;;;;5.77;70.66;102717.63;5041518;28;45326;-64
2022/01/11 02:31:55;;;;;;;;;30.25;21.75;;;;;5.75;70.90;102713.25;5041832;28;45324;-64
2022/01/11 02:34:21;;;;;;;;;21.75;19.25;;;;;5.76;70.93;102721.06;5041709;28;45517;-63
2022/01/11 02:36:47;;;;;;;;;31.00;21.75;;;;;5.75;70.46;102716.72;5041443;28;45456;-64
2022/01/11 02:39:13;;;;;;;;;21.25;18.00;;;;;5.72;71.07;102710.66;5041711;28;45233;-64
2022/01/11 02:41:53;;;;;;;;;26.00;21.00;;;;;5.72;70.44;102716.75;5041526;28;45455;-64
2022/01/11 02:44:20;;;;;;;;;24.75;20.25;;;;;5.70;70.93;102726.38;5039900;28;45484;-64
2022/01/11 02:46:45;;;;;;;;;31.25;23.75;;;;;5.68;70.24;102716.78;5041521;28;46322;-64
2022/01/11 02:49:11;;;;;;;;;34.00;19.00;;;;;5.69;70.63;102719.41;5037742;28;45340;-64
2022/01/11 02:51:36;;;;;;;;;27.50;24.75;;;;;5.69;71.01;102711.56;5039702;28;45525;-64
2022/01/11 02:54:04;;;;;;;;;24.25;21.25;;;;;5.67;70.33;102713.31;5041443;28;45246;-64
2022/01/11 02:56:31;;;;;;;;;22.25;20.50;;;;;5.69;70.16;102714.19;5041233;28;45455;-63
2022/01/11 02:58:57;;;;;;;;;33.00;24.00;;;;;5.69;69.78;102722.03;5040935;28;45497;-63
2022/01/11 03:01:23;;;;;;;;;28.00;21.25;;;;;5.68;70.78;102727.25;5041480;28;45561;-63
2022/01/11 03:03:48;;;;;;;;;21.75;19.00;;;;;5.66;70.74;102722.03;5041318;28;45551;-63
2022/01/11 03:06:14;;;;;;;;;23.00;21.75;;;;;5.66;70.21;102726.41;5040943;28;45590;-63
2022/01/11 03:08:42;;;;;;;;;25.50;18.25;;;;;5.67;71.08;102720.28;5040994;28;45423;-63
2022/01/11 03:11:09;;;;;;;;;29.75;17.25;;;;;5.69;70.11;102729.88;5040224;28;45379;-63
2022/01/11 03:13:38;;;;;;;;;29.50;24.00;;;;;5.72;70.04;102734.19;5040991;28;45607;-63
2022/01/11 03:16:04;;;;;;;;;26.25;22.75;;;;;5.75;70.07;102736.78;5040944;28;45273;-63
2022/01/11 03:18:31;;;;;;;;;24.50;21.75;;;;;5.76;69.81;102728.06;5040734;28;45450;-63
2022/01/11 03:20:56;;;;;;;;;19.75;19.00;;;;;5.78;70.41;102723.72;5040870;28;45367;-63
2022/01/11 03:23:23;;;;;;;;;25.50;17.75;;;;;5.76;69.36;102730.66;5041007;28;45165;-63
2022/01/11 03:25:51;;;;;;;;;22.25;18.50;;;;;5.67;70.05;102728.13;5040851;28;46159;-63
2022/01/11 03:28:17;;;;;;;;;27.00;18.75;;;;;5.60;70.28;102741.22;5040766;28;45558;-63
2022/01/11 03:30:43;;;;;;;;;26.00;18.00;;;;;5.54;70.08;102737.81;5040430;28;45475;-63
2022/01/11 03:33:08;;;;;;;;;29.50;22.50;;;;;5.51;69.93;102736.06;5040708;28;45438;-63
2022/01/11 03:35:39;;;;;;;;;24.00;16.00;;;;;5.48;69.88;102745.69;5040100;28;46474;-63
2022/01/11 03:38:06;;;;;;;;;28.00;20.25;;;;;5.45;69.64;102738.75;5040514;28;45351;-63
2022/01/11 03:40:32;;;;;;;;;29.75;19.75;;;;;5.41;69.69;102742.22;5038061;28;45265;-64
2022/01/11 03:42:58;;;;;;;;;18.25;18.25;;;;;5.38;70.26;102741.41;5040720;28;45590;-63
2022/01/11 03:45:25;;;;;;;;;30.00;22.75;;;;;5.33;70.47;102741.41;5040251;28;45442;-63
2022/01/11 03:47:53;;;;;;;;;26.25;17.25;;;;;5.29;70.22;102752.75;5040207;28;45202;-63
2022/01/11 03:50:19;;;;;;;;;29.25;18.25;;;;;5.28;70.74;102759.72;5037660;28;45245;-63
2022/01/11 03:52:45;;;;;;;;;25.75;20.50;;;;;5.29;70.77;102769.31;5040418;28;45323;-63
2022/01/11 03:55:15;;;;;;;;;24.00;21.00;;;;;5.31;69.76;102761.47;5040250;28;45564;-63
2022/01/11 03:57:41;;;;;;;;;25.75;17.75;;;;;5.31;70.13;102756.25;5040367;28;45447;-63
2022/01/11 04:00:11;;;;;;;;;18.00;16.75;;;;;5.31;70.12;102751.00;5040156;28;45390;-63
2022/01/11 04:02:37;;;;;;;;;20.75;17.25;;;;;5.28;70.29;102741.41;5040404;28;45315;-63
2022/01/11 04:05:03;;;;;;;;;21.25;19.00;;;;;5.27;70.38;102731.84;5040102;28;46237;-63
2022/01/11 04:07:28;;;;;;;;;26.75;21.50;;;;;5.26;70.37;102737.09;5040138;28;45643;-64
2022/01/11 04:09:55;;;;;;;;;22.50;16.75;;;;;5.26;70.83;102747.53;5040242;28;45379;-64
2022/01/11 04:12:22;;;;;;;;;27.00;19.25;;;;;5.24;70.19;102752.78;5040166;28;45291;-64
2022/01/11 04:14:47;;;;;;;;;26.50;23.50;;;;;5.24;71.02;102759.75;5039705;28;45186;-64
2022/01/11 04:17:13;;;;;;;;;26.75;22.25;;;;;5.26;70.30;102751.03;5039701;28;45434;-64
2022/01/11 04:19:39;;;;;;;;;27.25;20.25;;;;;5.27;71.64;102744.91;5040117;28;45340;-63
2022/01/11 04:22:05;;;;;;;;;23.75;20.00;;;;;5.27;70.43;102747.53;5039714;28;45458;-63
2022/01/11 04:24:31;;;;;;;;;18.25;15.00;;;;;5.30;70.91;102744.06;5039912;28;45626;-63
2022/01/11 04:26:56;;;;;;;;;29.25;24.25;;;;;5.35;70.25;102760.56;5039821;28;45331;-63
2022/01/11 04:29:22;;;;;;;;;21.00;19.75;;;;;5.36;71.00;102757.06;5039903;28;45305;-63
2022/01/11 04:31:48;;;;;;;;;27.50;20.25;;;;;5.33;70.44;102754.47;5040022;28;46450;-63
2022/01/11 04:34:13;;;;;;;;;28.00;24.00;;;;;5.31;70.47;102744.03;5038233;28;45554;-63
2022/01/11 04:36:39;;;;;;;;;26.00;22.75;;;;;5.30;70.12;102741.44;5039710;28;45436;-63
2022/01/11 04:39:07;;;;;;;;;23.50;16.75;;;;;5.28;69.96;102746.66;5039926;28;45379;-63
2022/01/11 04:41:33;;;;;;;;;25.25;19.25;;;;;5.29;70.17;102745.81;5039686;28;45435;-63
2022/01/11 04:43:58;;;;;;;;;21.75;19.75;;;;;5.33;70.49;102750.13;5039595;28;46200;-64
2022/01/11 04:46:26;;;;;;;;;32.25;21.00;;;;;5.30;71.23;102752.75;5039665;28;45261;-64
2022/01/11 04:48:52;;;;;;;;;26.50;21.25;;;;;5.28;70.42;102748.41;5039598;28;45340;-64
2022/01/11 04:51:18;;;;;;;;;29.50;21.50;;;;;5.23;70.61;102755.41;5036678;28;45360;-63
2022/01/11 04:53:43;;;;;;;;;23.50;18.00;;;;;5.23;70.63;102765.84;5039593;28;45428;-63
2022/01/11 04:56:09;;;;;;;;;26.50;19.00;;;;;5.24;70.45;102783.28;5039490;28;45359;-63
2022/01/11 04:58:36;;;;;;;;;37.75;25.75;;;;;5.27;70.67;102780.63;5039485;28;45328;-63
2022/01/11 05:01:01;;;;;;;;;36.25;26.50;;;;;5.29;70.84;102778.88;5039593;28;45243;-63
2022/01/11 05:03:27;;;;;;;;;32.50;23.75;;;;;5.35;70.74;102784.06;5039415;28;45304;-63
2022/01/11 05:05:52;;;;;;;;;29.25;21.25;;;;;5.42;71.08;102785.78;5039213;28;45231;-63
2022/01/11 05:08:18;;;;;;;;;33.75;23.75;;;;;5.43;70.28;102779.69;5039581;28;45226;-63
2022/01/11 05:10:43;;;;;;;;;32.25;25.75;;;;;5.47;70.77;102775.31;5039487;28;45326;-63
2022/01/11 05:13:13;;;;;;;;;32.75;21.00;;;;;5.47;70.18;102770.09;5039190;28;46131;-63
2022/01/11 05:15:39;;;;;;;;;28.50;25.25;;;;;5.49;70.93;102770.94;5039110;28;45451;-63
2022/01/11 05:18:06;;;;;;;;;28.25;19.50;;;;;5.53;70.11;102772.66;5039407;28;45375;-63
2022/01/11 05:20:32;;;;;;;;;17.25;12.75;;;;;5.53;70.23;102778.78;5039057;28;45444;-63
2022/01/11 05:22:57;;;;;;;;;26.50;19.00;;;;;5.56;70.44;102781.34;5039167;28;45710;-63
2022/01/11 05:25:23;;;;;;;;;32.75;28.00;;;;;5.59;70.74;102785.69;5039315;28;45418;-63
2022/01/11 05:27:48;;;;;;;;;27.25;22.00;;;;;5.59;70.06;102786.56;5039183;28;45440;-63
2022/01/11 05:30:14;;;;;;;;;29.00;26.00;;;;;5.58;69.65;102790.06;5037808;28;45315;-63
2022/01/11 05:32:42;;;;;;;;;27.25;23.25;;;;;5.55;69.87;102792.69;5037844;28;45420;-63
2022/01/11 05:35:09;;;;;;;;;33.00;26.50;;;;;5.55;70.13;102786.59;5040583;28;45702;-63
2022/01/11 05:37:35;;;;;;;;;28.50;19.75;;;;;5.56;70.23;102789.19;5040008;28;45241;-63
2022/01/11 05:40:01;;;;;;;;;34.00;24.50;;;;;5.49;69.61;102789.25;5042361;28;45246;-63
2022/01/11 05:42:27;;;;;;;;;29.50;27.00;;;;;5.40;69.64;102798.00;5042316;28;46033;-63
2022/01/11 05:44:53;;;;;;;;;28.00;23.25;;;;;5.35;69.65;102814.56;5042002;28;45170;-63
2022/01/11 05:47:19;;;;;;;;;34.00;28.25;;;;;5.31;70.71;102819.81;5042263;28;45303;-63
2022/01/11 05:49:45;;;;;;;;;30.00;25.25;;;;;5.31;69.93;102811.13;5039493;28;45693;-63
2022/01/11 05:52:10;;;;;;;;;27.50;21.00;;;;;5.28;69.87;102806.75;5041980;28;45509;-63
2022/01/11 05:54:36;;;;;;;;;32.00;24.75;;;;;5.25;70.08;102806.78;5042175;28;45311;-63
2022/01/11 05:57:02;;;;;;;;;30.25;24.00;;;;;5.23;69.88;102803.31;5042381;28;45319;-63
2022/01/11 05:59:27;;;;;;;;;34.00;28.25;;;;;5.21;69.95;102804.16;5041925;28;45383;-64
2022/01/11 06:01:53;;;;;;;;;32.75;27.75;;;;;5.20;69.98;102807.66;5041776;28;45413;-64
2022/01/11 06:04:18;;;;;;;;;25.25;21.25;;;;;5.15;69.95;102818.13;5041914;28;45257;-64
2022/01/11 06:06:44;;;;;;;;;35.00;24.00;;;;;5.14;70.48;102826.84;5042260;28;45344;-63
2022/01/11 06:09:09;;;;;;;;;23.75;18.50;;;;;5.12;69.18;102827.72;5042145;28;46882;-64
2022/01/11 06:11:35;;;;;;;;;34.25;24.50;;;;;5.15;70.13;102838.16;5039265;28;46183;-64
2022/01/11 06:14:00;;;;;;;;;36.50;26.25;;;;;5.15;69.34;102841.66;5041590;28;45363;-63
2022/01/11 06:16:26;;;;;;;;;29.00;26.50;;;;;5.12;69.34;102849.47;5042038;28;45554;-63
2022/01/11 06:18:51;;;;;;;;;31.00;26.25;;;;;5.09;69.97;102843.41;5041812;28;45442;-64
2022/01/11 06:21:17;;;;;;;;;32.50;26.50;;;;;5.10;69.32;102843.41;5041395;28;46085;-63
2022/01/11 06:23:45;;;;;;;;;30.50;23.75;;;;;5.11;69.97;102849.50;5041579;28;45423;-63
2022/01/11 06:26:11;;;;;;;;;27.25;22.75;;;;;5.11;69.25;102846.88;5041679;28;45393;-63
2022/01/11 06:28:38;;;;;;;;;32.00;25.50;;;;;5.08;69.56;102853.00;5041422;28;45449;-63
2022/01/11 06:31:03;;;;;;;;;33.25;28.75;;;;;5.06;69.77;102849.53;5041385;28;45438;-63
2022/01/11 06:33:29;;;;;;;;;41.00;28.25;;;;;5.04;69.32;102846.03;5041590;28;45245;-63
2022/01/11 06:35:54;;;;;;;;;36.50;27.00;;;;;5.04;69.24;102843.41;5042054;28;45316;-63
2022/01/11 06:38:20;;;;;;;;;28.75;24.00;;;;;5.04;69.30;102853.84;5042040;28;45428;-63
2022/01/11 06:40:45;;;;;;;;;41.00;27.25;;;;;5.05;70.14;102852.97;5041898;28;46235;-63
2022/01/11 06:43:11;;;;;;;;;36.25;26.00;;;;;5.02;69.90;102851.25;5041153;28;45427;-63
2022/01/11 06:45:36;;;;;;;;;32.75;28.50;;;;;4.98;69.67;102853.91;5040282;28;45241;-63
2022/01/11 06:48:02;;;;;;;;;34.00;29.00;;;;;4.93;69.32;102853.03;5023293;28;45305;-63
2022/01/11 06:50:28;;;;;;;;;30.75;28.25;;;;;4.90;70.24;102864.34;5041414;28;45396;-64
2022/01/11 06:52:53;;;;;;;;;36.00;22.50;;;;;4.90;69.86;102851.28;5041639;28;45371;-64
2022/01/11 06:55:20;;;;;;;;;35.75;23.75;;;;;4.90;69.81;102853.91;5041897;28;45304;-64
2022/01/11 06:57:47;;;;;;;;;30.25;25.50;;;;;4.88;68.99;102859.97;5041842;28;45414;-61
2022/01/11 07:00:13;;;;;;;;;37.50;32.00;;;;;4.85;69.10;102855.66;5041524;28;45368;-59
2022/01/11 07:02:39;;;;;;;;;27.00;21.25;;;;;4.84;69.64;102853.03;5041587;28;45436;-59
2022/01/11 07:05:05;;;;;;;;;48.75;41.75;;;;;4.84;69.86;102856.53;5041232;28;45404;-59
2022/01/11 07:07:31;;;;;;;;;33.50;26.25;;;;;4.83;69.31;102853.91;5041328;28;45376;-60
2022/01/11 07:09:56;;;;;;;;;37.00;28.25;;;;;4.80;69.18;102861.75;5023547;28;45447;-58
2022/01/11 07:12:22;;;;;;;;;48.25;33.00;;;;;4.76;68.97;102863.50;5023508;28;45340;-63
2022/01/11 07:14:48;;;;;;;;;37.00;27.50;;;;;4.74;69.28;102866.13;5041508;28;45322;-63
2022/01/11 07:17:15;;;;;;;;;40.00;29.25;;;;;4.74;69.51;102867.84;5041365;28;45368;-64
2022/01/11 07:19:41;;;;;;;;;41.50;31.25;;;;;4.72;69.12;102877.41;5022599;28;47633;-64
2022/01/11 07:22:07;;;;;;;;;35.75;23.00;;;;;4.65;69.22;102876.53;5040789;28;45519;-64
2022/01/11 07:24:33;;;;;;;;;41.25;29.50;;;;;4.64;69.65;102874.78;5041501;28;45424;-64
2022/01/11 07:26:58;;;;;;;;;42.50;37.25;;;;;4.65;69.06;102875.66;5041293;28;45320;-64
2022/01/11 07:29:24;;;;;;;;;51.00;40.50;;;;;4.64;69.62;102885.25;5040867;28;46189;-63
2022/01/11 07:31:50;;;;;;;;;44.25;37.50;;;;;4.65;69.70;102896.53;5040906;28;45249;-63
2022/01/11 07:34:16;;;;;;;;;54.25;42.75;;;;;4.70;69.30;102907.88;5034494;28;45301;-63
2022/01/11 07:36:42;;;;;;;;;42.00;32.25;;;;;4.72;69.11;102911.34;5041225;28;45174;-63
2022/01/11 07:39:08;;;;;;;;;37.50;33.75;;;;;4.73;69.10;102919.16;5039790;28;45443;-64
2022/01/11 07:41:34;;;;;;;;;32.50;29.50;;;;;4.74;69.09;102923.56;5026426;28;45174;-64
2022/01/11 07:43:59;;;;;;;;;40.00;33.00;;;;;4.73;69.49;102918.31;5032824;28;45447;-64
2022/01/11 07:46:25;;;;;;;;;30.50;25.50;;;;;4.71;69.03;102909.59;5041001;28;45429;-63
2022/01/11 07:48:51;;;;;;;;;45.75;34.00;;;;;4.68;68.97;102914.84;5040897;28;45339;-63
2022/01/11 07:51:16;;;;;;;;;33.75;25.25;;;;;4.67;68.66;102920.94;5027104;28;45935;-64
2022/01/11 07:53:42;;;;;;;;;33.00;31.00;;;;;4.66;69.33;102908.72;5041153;28;45362;-63
2022/01/11 07:56:08;;;;;;;;;39.75;32.00;;;;;4.68;69.08;102926.16;5040923;28;45265;-64
2022/01/11 07:58:34;;;;;;;;;32.25;28.00;;;;;4.67;68.67;102921.81;5040087;28;45416;-64
2022/01/11 08:00:59;;;;;;;;;52.00;42.00;;;;;4.67;69.09;102928.78;5040544;28;45304;-64
2022/01/11 08:03:25;;;;;;;;;40.25;32.25;;;;;4.66;69.22;102925.28;5040943;28;45276;-64
2022/01/11 08:05:52;;;;;;;;;49.75;42.75;;;;;4.68;69.19;102918.31;5040687;28;45550;-64
2022/01/11 08:08:18;;;;;;;;;72.00;56.00;;;;;4.65;69.06;102922.66;5040734;28;46366;-63
2022/01/11 08:10:43;;;;;;;;;33.50;27.25;;;;;4.61;69.55;102934.84;5040620;28;45265;-64
2022/01/11 08:13:10;;;;;;;;;42.00;33.50;;;;;4.58;69.15;102934.84;5040745;28;45209;-64
2022/01/11 08:15:37;;;;;;;;;35.25;26.25;;;;;4.55;69.74;102937.44;5040601;28;45529;-64
2022/01/11 08:18:04;;;;;;;;;50.25;37.50;;;;;4.55;68.89;102944.41;5040858;28;46515;-64
2022/01/11 08:20:29;;;;;;;;;42.00;35.25;;;;;4.56;68.71;102949.63;5040365;28;45419;-64
2022/01/11 08:22:56;;;;;;;;;38.00;33.00;;;;;4.57;69.25;102956.59;5040955;28;45371;-64
2022/01/11 08:25:23;;;;;;;;;34.50;32.00;;;;;4.57;68.95;102966.16;5040570;28;45649;-64
2022/01/11 08:27:48;;;;;;;;;56.50;39.00;;;;;4.58;69.33;102967.88;5040549;28;45496;-64
2022/01/11 08:30:14;;;;;;;;;39.25;31.25;;;;;4.61;69.74;102971.38;5040010;28;45348;-63
2022/01/11 08:32:40;;;;;;;;;56.75;43.00;;;;;4.61;69.36;102973.13;5035080;28;45293;-64
2022/01/11 08:35:06;;;;;;;;;100.67;82.67;;;;;4.58;68.46;102962.66;5039630;28;45297;-64
2022/01/11 08:37:31;;;;;;;;;88.33;65.67;;;;;4.62;69.62;102967.91;5040403;28;45369;-64
2022/01/11 08:39:57;;;;;;;;;60.33;47.00;;;;;4.66;68.97;102968.78;5039957;28;45396;-64
2022/01/11 08:42:23;;;;;;;;;50.00;40.00;;;;;4.69;69.42;102969.66;5020739;28;45475;-64
2022/01/11 08:44:51;;;;;;;;;64.75;45.25;;;;;4.74;69.47;102980.13;5039757;28;45693;-64
2022/01/11 08:47:18;;;;;;;;;62.33;47.33;;;;;4.76;68.55;102979.25;5040356;28;46017;-64
2022/01/11 08:49:44;;;;;;;;;42.25;35.50;;;;;4.80;68.86;102977.50;5034390;28;45260;-64
2022/01/11 08:52:11;;;;;;;;;52.25;37.75;;;;;4.84;68.86;102965.31;5033132;28;45328;-63
2022/01/11 08:54:37;;;;;;;;;47.00;38.50;;;;;4.88;68.44;102961.81;5040398;28;45332;-64
2022/01/11 08:57:03;;;;;;;;;40.75;35.25;;;;;4.90;69.02;102968.81;5040112;28;45425;-64
2022/01/11 08:59:28;;;;;;;;;41.75;30.75;;;;;4.92;68.12;102968.81;5039875;28;45388;-63
2022/01/11 09:01:57;;;;;;;;;44.00;35.50;;;;;4.92;68.04;102966.19;5040158;28;45357;-64
2022/01/11 09:04:23;;;;;;;;;49.00;34.25;;;;;4.91;68.47;102967.06;5040149;28;45516;-64
2022/01/11 09:06:50;;;;;;;;;36.50;30.25;;;;;4.92;68.71;102969.66;5040222;28;46338;-64
2022/01/11 09:09:17;;;;;;;;;37.75;33.25;;;;;4.93;69.30;102966.19;5040430;28;45415;-64
2022/01/11 09:11:43;;;;;;;;;49.00;34.75;;;;;4.91;68.27;102977.50;5043737;28;45356;-63
2022/01/11 09:14:09;;;;;;;;;49.25;40.25;;;;;4.91;69.20;102981.00;5043439;28;45575;-64
2022/01/11 09:16:35;;;;;;;;;56.75;40.25;;;;;4.93;68.50;102981.84;5025570;28;46784;-63
2022/01/11 09:19:00;;;;;;;;;50.00;41.00;;;;;4.93;68.28;102981.84;5043425;28;45195;-64
2022/01/11 09:21:26;;;;;;;;;55.75;40.50;;;;;4.94;68.70;102986.19;5043673;28;45301;-64
2022/01/11 09:23:52;;;;;;;;;58.00;40.50;;;;;4.96;68.55;102979.22;5043563;28;45255;-64
2022/01/11 09:26:18;;;;;;;;;65.00;52.00;;;;;4.97;68.88;102988.81;5043318;28;45253;-64
2022/01/11 09:28:45;;;;;;;;;94.33;73.67;;;;;4.98;68.08;102989.72;5043132;28;45752;-64
2022/01/11 09:31:11;;;;;;;;;56.25;43.50;;;;;4.98;68.22;102994.94;5043223;28;45504;-64
2022/01/11 09:33:36;;;;;;;;;34.50;32.00;;;;;4.96;68.10;103000.13;5036453;28;45278;-63
2022/01/11 09:36:02;;;;;;;;;47.25;37.25;;;;;4.95;68.54;102995.78;5042220;28;45345;-63
2022/01/11 09:38:28;;;;;;;;;44.25;35.00;;;;;4.94;68.61;103001.00;5043129;28;45368;-64
2022/01/11 09:40:57;;;;;;;;;50.50;33.75;;;;;4.92;68.38;103003.63;5016815;28;45328;-64
2022/01/11 09:43:25;;;;;;;;;53.00;36.50;;;;;4.89;67.67;102995.75;5030273;28;45434;-64
2022/01/11 09:45:52;;;;;;;;;43.50;35.00;;;;;4.90;68.90;102996.66;5043008;28;45392;-64
2022/01/11 09:48:22;;;;;;;;;50.25;32.75;;;;;4.91;68.23;103001.88;5043100;28;45340;-64
2022/01/11 09:50:48;;;;;;;;;61.75;43.00;;;;;4.94;68.89;103008.84;5029557;28;45301;-64
2022/01/11 09:53:14;;;;;;;;;37.75;30.50;;;;;4.95;68.59;103007.97;5043308;28;45225;-64
2022/01/11 09:55:41;;;;;;;;;44.75;34.75;;;;;4.94;67.89;103007.09;5042712;28;45237;-64
2022/01/11 09:58:07;;;;;;;;;48.75;41.25;;;;;4.93;68.71;103010.59;5042860;28;45346;-63
2022/01/11 10:00:33;;;;;;;;;54.25;39.25;;;;;4.97;68.92;103011.44;5042423;28;45350;-64
2022/01/11 10:02:59;;;;;;;;;53.75;42.00;;;;;5.01;68.53;103011.47;5042993;28;45411;-64
2022/01/11 10:05:25;;;;;;;;;53.00;40.25;;;;;5.06;68.75;103018.44;5024813;28;46019;-64
2022/01/11 10:07:50;;;;;;;;;94.33;72.33;;;;;5.10;68.72;103015.81;5042813;28;45260;-64
2022/01/11 10:10:19;;;;;;;;;50.00;40.50;;;;;5.13;68.35;103025.38;5043762;28;45249;-64
2022/01/11 10:12:54;;;;;;;;;64.00;45.75;;;;;5.15;68.73;103021.03;5044197;28;45331;-63
2022/01/11 10:15:40;;;;;;;;;70.00;57.00;;;;;5.14;68.32;103020.19;5042460;28;45284;-64
2022/01/11 10:18:06;;;;;;;;;39.50;25.50;;;;;5.15;68.63;103028.88;5024766;28;45463;-64
2022/01/11 10:20:35;;;;;;;;;52.00;41.00;;;;;5.15;68.01;103028.88;5020820;28;45522;-63
2022/01/11 10:23:07;;;;;;;;;49.25;42.25;;;;;5.16;68.58;103031.50;5022820;28;45442;-64
2022/01/11 10:25:43;;;;;;;;;53.25;40.50;;;;;5.18;68.75;103034.97;5009308;28;45394;-64
2022/01/11 10:28:09;;;;;;;;;58.00;41.75;;;;;5.19;68.45;103026.25;5022304;28;45297;-64
2022/01/11 10:30:35;;;;;;;;;67.00;47.00;;;;;5.22;68.03;103034.09;5012820;28;45330;-64
2022/01/11 10:33:06;;;;;;;;;60.75;44.50;;;;;5.26;68.73;103038.44;5017784;28;45413;-63
2022/01/11 10:35:42;;;;;;;;;73.00;57.33;;;;;5.28;68.76;103036.69;5022429;28;46189;-64
2022/01/11 10:38:09;;;;;;;;;60.50;46.00;;;;;5.26;68.05;103041.06;5022200;28;45358;-64
2022/01/11 10:40:41;;;;;;;;;61.50;47.50;;;;;5.27;68.61;103040.19;5022588;28;45399;-64
2022/01/11 10:43:09;;;;;;;;;54.75;41.00;;;;;5.33;68.13;103047.16;5022452;28;45335;-64
2022/01/11 10:45:37;;;;;;;;;48.00;39.00;;;;;5.38;67.62;103052.41;5022084;28;45416;-64
2022/01/11 10:48:08;;;;;;;;;44.00;38.75;;;;;5.39;67.81;103047.16;5021890;28;45440;-64
2022/01/11 10:50:45;;;;;;;;;46.50;29.25;;;;;5.39;68.01;103044.56;5022075;28;45427;-64
2022/01/11 10:53:15;;;;;;;;;48.75;38.25;;;;;5.41;67.78;103036.69;5009957;28;45447;-64
2022/01/11 10:55:42;;;;;;;;;56.25;43.25;;;;;5.42;67.07;103044.53;5021939;28;45378;-64
2022/01/11 10:58:11;;;;;;;;;49.50;40.00;;;;;5.46;67.94;103038.44;5022322;28;45379;-64
2022/01/11 11:00:41;;;;;;;;;52.25;41.75;;;;;5.49;67.05;103043.66;5022137;28;45245;-64
2022/01/11 11:03:11;;;;;;;;;50.00;37.25;;;;;5.48;67.92;103041.91;5022229;28;45319;-64
2022/01/11 11:05:39;;;;;;;;;62.50;42.50;;;;;5.48;66.99;103039.31;5021236;28;46240;-64
2022/01/11 11:08:08;;;;;;;;;46.00;38.00;;;;;5.51;67.35;103043.66;5021989;28;45288;-64
2022/01/11 11:10:37;;;;;;;;;50.75;40.00;;;;;5.50;66.76;103039.31;5021886;28;45415;-64
2022/01/11 11:13:04;;;;;;;;;44.00;38.00;;;;;5.54;67.43;103043.66;5021946;28;45417;-65
2022/01/11 11:15:36;;;;;;;;;52.25;37.50;;;;;5.57;67.22;103041.91;5021397;28;45259;-64